sensor_id;sensor_type;location;lat;lon;timestamp;temperature;humidity
9537;DHT22;4807;48.024;11.726;2022-11-20T00:01:24;4.40;99.90
9537;DHT22;4807;48.024;11.726;2022-11-20T00:04:33;4.40;99.90
9537;DHT22;4807;48.024;11.726;2022-11-20T00:07:43;4.30;99.90
9537;DHT22;4807;48.024;11.726;2022-11-20T00:10:51;4.40;99.90
9537;DHT22;4807;48.024;11.726;2022-11-20T00:14:00;4.40;99.90
9537;DHT22;4807;48.024;11.726;2022-11-20T00:17:09;4.40;99.90
9537;DHT22;4807;48.024;11.726;2022-11-20T00:20:18;4.40;99.90
9537;DHT22;4807;48.024;11.726;2022-11-20T00:23:27;4.50;99.90
9537;DHT22;4807;48.024;11.726;2022-11-20T00:26:36;4.50;99.90
9537;DHT22;4807;48.024;11.726;2022-11-20T00:29:45;4.50;99.90
9537;DHT22;4807;48.024;11.726;2022-11-20T00:32:53;4.60;99.90
9537;DHT22;4807;48.024;11.726;2022-11-20T00:36:06;4.60;99.90
9537;DHT22;4807;48.024;11.726;2022-11-20T00:39:17;4.50;99.90
9537;DHT22;4807;48.024;11.726;2022-11-20T00:42:25;4.50;99.90
9537;DHT22;4807;48.024;11.726;2022-11-20T00:45:34;4.60;99.90
9537;DHT22;4807;48.024;11.726;2022-11-20T00:48:42;4.60;99.90
9537;DHT22;4807;48.024;11.726;2022-11-20T00:51:51;4.60;99.90
9537;DHT22;4807;48.024;11.726;2022-11-20T00:55:01;4.50;99.90
9537;DHT22;4807;48.024;11.726;2022-11-20T00:58:09;4.60;99.90
9537;DHT22;4807;48.024;11.726;2022-11-20T01:01:21;4.60;99.90
9537;DHT22;4807;48.024;11.726;2022-11-20T01:04:32;4.70;99.90
9537;DHT22;4807;48.024;11.726;2022-11-20T01:07:40;4.90;99.90
9537;DHT22;4807;48.024;11.726;2022-11-20T01:10:50;4.70;99.90
9537;DHT22;4807;48.024;11.726;2022-11-20T01:13:59;4.80;99.90
9537;DHT22;4807;48.024;11.726;2022-11-20T01:17:08;4.80;99.90
9537;DHT22;4807;48.024;11.726;2022-11-20T01:20:17;4.80;99.90
9537;DHT22;4807;48.024;11.726;2022-11-20T01:23:25;4.90;99.90
9537;DHT22;4807;48.024;11.726;2022-11-20T01:26:36;4.90;99.90
9537;DHT22;4807;48.024;11.726;2022-11-20T01:29:46;4.80;99.90
9537;DHT22;4807;48.024;11.726;2022-11-20T01:32:55;4.90;99.90
9537;DHT22;4807;48.024;11.726;2022-11-20T01:36:05;4.80;99.90
9537;DHT22;4807;48.024;11.726;2022-11-20T01:39:16;4.80;99.90
9537;DHT22;4807;48.024;11.726;2022-11-20T01:42:28;4.70;99.90
9537;DHT22;4807;48.024;11.726;2022-11-20T01:46:01;4.80;99.90
9537;DHT22;4807;48.024;11.726;2022-11-20T01:49:16;4.80;99.90
9537;DHT22;4807;48.024;11.726;2022-11-20T01:52:32;4.90;99.90
9537;DHT22;4807;48.024;11.726;2022-11-20T01:55:47;4.90;99.90
9537;DHT22;4807;48.024;11.726;2022-11-20T01:59:02;4.90;99.90
9537;DHT22;4807;48.024;11.726;2022-11-20T02:02:12;4.90;99.90
9537;DHT22;4807;48.024;11.726;2022-11-20T02:05:28;4.90;99.90
9537;DHT22;4807;48.024;11.726;2022-11-20T02:08:40;4.90;99.90
9537;DHT22;4807;48.024;11.726;2022-11-20T02:11:49;4.90;99.90
9537;DHT22;4807;48.024;11.726;2022-11-20T02:14:59;4.90;99.90
9537;DHT22;4807;48.024;11.726;2022-11-20T02:18:07;5.00;99.90
9537;DHT22;4807;48.024;11.726;2022-11-20T02:21:28;5.00;99.90
9537;DHT22;4807;48.024;11.726;2022-11-20T02:24:45;5.00;99.90
9537;DHT22;4807;48.024;11.726;2022-11-20T02:27:56;5.00;99.90
9537;DHT22;4807;48.024;11.726;2022-11-20T02:31:04;5.00;99.90
9537;DHT22;4807;48.024;11.726;2022-11-20T02:34:12;5.00;99.90
9537;DHT22;4807;48.024;11.726;2022-11-20T02:42:35;4.90;99.90
9537;DHT22;4807;48.024;11.726;2022-11-20T02:45:44;4.90;99.90
9537;DHT22;4807;48.024;11.726;2022-11-20T02:48:52;4.90;99.90
9537;DHT22;4807;48.024;11.726;2022-11-20T02:52:01;4.90;99.90
9537;DHT22;4807;48.024;11.726;2022-11-20T02:55:09;4.90;99.90
9537;DHT22;4807;48.024;11.726;2022-11-20T02:58:19;4.90;99.90
9537;DHT22;4807;48.024;11.726;2022-11-20T03:01:27;4.90;99.90
9537;DHT22;4807;48.024;11.726;2022-11-20T03:04:35;4.80;99.90
9537;DHT22;4807;48.024;11.726;2022-11-20T03:07:44;4.80;99.90
9537;DHT22;4807;48.024;11.726;2022-11-20T03:10:52;4.70;99.90
9537;DHT22;4807;48.024;11.726;2022-11-20T03:14:03;4.70;99.90
9537;DHT22;4807;48.024;11.726;2022-11-20T03:17:11;4.70;99.90
9537;DHT22;4807;48.024;11.726;2022-11-20T03:20:20;4.70;99.90
9537;DHT22;4807;48.024;11.726;2022-11-20T03:23:29;4.80;99.90
9537;DHT22;4807;48.024;11.726;2022-11-20T03:26:39;4.80;99.90
9537;DHT22;4807;48.024;11.726;2022-11-20T03:29:49;4.70;99.90
9537;DHT22;4807;48.024;11.726;2022-11-20T03:32:57;4.70;99.90
9537;DHT22;4807;48.024;11.726;2022-11-20T03:36:08;4.70;99.90
9537;DHT22;4807;48.024;11.726;2022-11-20T03:39:18;4.70;99.90
9537;DHT22;4807;48.024;11.726;2022-11-20T03:42:27;4.80;99.90
9537;DHT22;4807;48.024;11.726;2022-11-20T03:45:56;4.70;99.90
9537;DHT22;4807;48.024;11.726;2022-11-20T03:49:04;4.80;99.90
9537;DHT22;4807;48.024;11.726;2022-11-20T03:52:12;4.60;99.90
9537;DHT22;4807;48.024;11.726;2022-11-20T03:55:20;4.60;99.90
9537;DHT22;4807;48.024;11.726;2022-11-20T03:58:29;4.60;99.90
9537;DHT22;4807;48.024;11.726;2022-11-20T04:01:39;4.60;99.90
9537;DHT22;4807;48.024;11.726;2022-11-20T04:04:54;4.60;99.90
9537;DHT22;4807;48.024;11.726;2022-11-20T04:08:02;4.60;99.90
9537;DHT22;4807;48.024;11.726;2022-11-20T04:11:12;4.60;99.90
9537;DHT22;4807;48.024;11.726;2022-11-20T04:14:22;4.60;99.90
9537;DHT22;4807;48.024;11.726;2022-11-20T04:17:32;4.60;99.90
9537;DHT22;4807;48.024;11.726;2022-11-20T04:20:40;4.60;99.90
9537;DHT22;4807;48.024;11.726;2022-11-20T04:23:49;4.70;99.90
9537;DHT22;4807;48.024;11.726;2022-11-20T04:26:58;4.70;99.90
9537;DHT22;4807;48.024;11.726;2022-11-20T04:30:07;4.60;99.90
9537;DHT22;4807;48.024;11.726;2022-11-20T04:33:18;4.60;99.90
9537;DHT22;4807;48.024;11.726;2022-11-20T04:36:27;4.60;99.90
9537;DHT22;4807;48.024;11.726;2022-11-20T04:39:36;4.60;99.90
9537;DHT22;4807;48.024;11.726;2022-11-20T04:42:45;4.60;99.90
9537;DHT22;4807;48.024;11.726;2022-11-20T04:45:53;4.60;99.90
9537;DHT22;4807;48.024;11.726;2022-11-20T04:49:04;4.60;99.90
9537;DHT22;4807;48.024;11.726;2022-11-20T04:52:13;4.60;99.90
9537;DHT22;4807;48.024;11.726;2022-11-20T04:55:21;4.70;99.90
9537;DHT22;4807;48.024;11.726;2022-11-20T04:58:29;4.60;99.90
9537;DHT22;4807;48.024;11.726;2022-11-20T05:01:38;4.60;99.90
9537;DHT22;4807;48.024;11.726;2022-11-20T05:04:48;4.50;99.90
9537;DHT22;4807;48.024;11.726;2022-11-20T05:07:57;4.50;99.90
9537;DHT22;4807;48.024;11.726;2022-11-20T05:11:07;4.60;99.90
9537;DHT22;4807;48.024;11.726;2022-11-20T05:14:16;4.60;99.90
9537;DHT22;4807;48.024;11.726;2022-11-20T05:17:24;4.60;99.90
9537;DHT22;4807;48.024;11.726;2022-11-20T05:20:34;4.80;99.90
9537;DHT22;4807;48.024;11.726;2022-11-20T05:23:43;4.60;99.90
9537;DHT22;4807;48.024;11.726;2022-11-20T05:26:52;4.60;99.90
9537;DHT22;4807;48.024;11.726;2022-11-20T05:30:01;4.70;99.90
9537;DHT22;4807;48.024;11.726;2022-11-20T05:33:09;4.70;99.90
9537;DHT22;4807;48.024;11.726;2022-11-20T05:36:20;4.70;99.90
9537;DHT22;4807;48.024;11.726;2022-11-20T05:39:28;4.60;99.90
9537;DHT22;4807;48.024;11.726;2022-11-20T05:42:37;4.60;99.90
9537;DHT22;4807;48.024;11.726;2022-11-20T05:45:52;4.60;99.90
9537;DHT22;4807;48.024;11.726;2022-11-20T05:49:01;4.70;99.90
9537;DHT22;4807;48.024;11.726;2022-11-20T05:52:11;4.60;99.90
9537;DHT22;4807;48.024;11.726;2022-11-20T05:55:19;4.60;99.90
9537;DHT22;4807;48.024;11.726;2022-11-20T05:58:28;4.60;99.90
9537;DHT22;4807;48.024;11.726;2022-11-20T06:01:37;4.70;99.90
9537;DHT22;4807;48.024;11.726;2022-11-20T06:04:45;4.70;99.90
9537;DHT22;4807;48.024;11.726;2022-11-20T06:07:55;4.70;99.90
9537;DHT22;4807;48.024;11.726;2022-11-20T06:11:04;4.70;99.90
9537;DHT22;4807;48.024;11.726;2022-11-20T06:14:13;4.70;99.90
9537;DHT22;4807;48.024;11.726;2022-11-20T06:17:22;4.70;99.90
9537;DHT22;4807;48.024;11.726;2022-11-20T06:20:30;4.70;99.90
9537;DHT22;4807;48.024;11.726;2022-11-20T06:23:47;4.70;99.90
9537;DHT22;4807;48.024;11.726;2022-11-20T06:26:56;4.60;99.90
9537;DHT22;4807;48.024;11.726;2022-11-20T06:30:05;4.50;99.90
9537;DHT22;4807;48.024;11.726;2022-11-20T06:33:14;4.50;99.90
9537;DHT22;4807;48.024;11.726;2022-11-20T06:36:23;4.20;99.90
9537;DHT22;4807;48.024;11.726;2022-11-20T06:39:33;4.10;99.90
9537;DHT22;4807;48.024;11.726;2022-11-20T06:42:41;4.00;99.90
9537;DHT22;4807;48.024;11.726;2022-11-20T06:45:52;3.80;99.90
9537;DHT22;4807;48.024;11.726;2022-11-20T06:49:00;3.80;99.90
9537;DHT22;4807;48.024;11.726;2022-11-20T06:52:09;3.80;99.90
9537;DHT22;4807;48.024;11.726;2022-11-20T06:55:20;3.70;99.90
9537;DHT22;4807;48.024;11.726;2022-11-20T06:58:31;3.70;99.90
9537;DHT22;4807;48.024;11.726;2022-11-20T07:01:40;3.60;99.90
9537;DHT22;4807;48.024;11.726;2022-11-20T07:04:48;3.50;99.90
9537;DHT22;4807;48.024;11.726;2022-11-20T07:07:57;3.50;99.90
9537;DHT22;4807;48.024;11.726;2022-11-20T07:11:07;3.40;99.90
9537;DHT22;4807;48.024;11.726;2022-11-20T07:14:15;3.40;99.90
9537;DHT22;4807;48.024;11.726;2022-11-20T07:17:24;3.50;99.90
9537;DHT22;4807;48.024;11.726;2022-11-20T07:20:32;3.50;99.90
9537;DHT22;4807;48.024;11.726;2022-11-20T07:23:40;3.70;99.90
9537;DHT22;4807;48.024;11.726;2022-11-20T07:26:50;3.90;99.90
9537;DHT22;4807;48.024;11.726;2022-11-20T07:29:59;4.50;99.90
9537;DHT22;4807;48.024;11.726;2022-11-20T07:33:07;5.00;99.90
9537;DHT22;4807;48.024;11.726;2022-11-20T07:36:15;5.50;99.90
9537;DHT22;4807;48.024;11.726;2022-11-20T07:39:24;5.90;99.90
9537;DHT22;4807;48.024;11.726;2022-11-20T07:42:33;6.00;99.90
9537;DHT22;4807;48.024;11.726;2022-11-20T07:45:42;6.10;99.90
9537;DHT22;4807;48.024;11.726;2022-11-20T07:48:50;6.60;99.90
9537;DHT22;4807;48.024;11.726;2022-11-20T07:51:58;6.60;99.90
9537;DHT22;4807;48.024;11.726;2022-11-20T07:55:11;6.70;99.90
9537;DHT22;4807;48.024;11.726;2022-11-20T07:58:21;6.40;99.90
9537;DHT22;4807;48.024;11.726;2022-11-20T08:01:30;6.20;99.90
9537;DHT22;4807;48.024;11.726;2022-11-20T08:04:38;6.00;99.90
9537;DHT22;4807;48.024;11.726;2022-11-20T08:07:46;6.00;99.90
9537;DHT22;4807;48.024;11.726;2022-11-20T08:10:56;5.90;99.90
9537;DHT22;4807;48.024;11.726;2022-11-20T08:14:28;5.90;99.90
9537;DHT22;4807;48.024;11.726;2022-11-20T08:17:35;5.90;99.90
9537;DHT22;4807;48.024;11.726;2022-11-20T08:20:45;5.90;99.90
9537;DHT22;4807;48.024;11.726;2022-11-20T08:23:53;5.90;99.90
9537;DHT22;4807;48.024;11.726;2022-11-20T08:27:01;5.90;99.90
9537;DHT22;4807;48.024;11.726;2022-11-20T08:30:13;5.90;99.90
9537;DHT22;4807;48.024;11.726;2022-11-20T08:33:22;5.90;99.90
9537;DHT22;4807;48.024;11.726;2022-11-20T08:36:32;5.90;99.90
9537;DHT22;4807;48.024;11.726;2022-11-20T08:39:41;5.90;99.90
9537;DHT22;4807;48.024;11.726;2022-11-20T08:42:50;5.90;99.90
9537;DHT22;4807;48.024;11.726;2022-11-20T08:46:00;6.00;99.90
9537;DHT22;4807;48.024;11.726;2022-11-20T08:49:10;6.10;99.90
9537;DHT22;4807;48.024;11.726;2022-11-20T08:52:19;6.10;99.90
9537;DHT22;4807;48.024;11.726;2022-11-20T08:55:27;6.20;99.90
9537;DHT22;4807;48.024;11.726;2022-11-20T08:58:36;6.30;99.90
9537;DHT22;4807;48.024;11.726;2022-11-20T09:02:06;6.30;99.90
9537;DHT22;4807;48.024;11.726;2022-11-20T09:05:15;6.40;99.90
9537;DHT22;4807;48.024;11.726;2022-11-20T09:08:23;6.50;99.90
9537;DHT22;4807;48.024;11.726;2022-11-20T09:11:32;6.60;99.90
9537;DHT22;4807;48.024;11.726;2022-11-20T09:14:40;6.60;99.90
9537;DHT22;4807;48.024;11.726;2022-11-20T09:17:56;6.50;99.90
9537;DHT22;4807;48.024;11.726;2022-11-20T09:21:10;6.60;99.90
9537;DHT22;4807;48.024;11.726;2022-11-20T09:24:20;6.50;99.90
9537;DHT22;4807;48.024;11.726;2022-11-20T09:27:28;6.60;99.90
9537;DHT22;4807;48.024;11.726;2022-11-20T09:30:37;6.60;99.90
9537;DHT22;4807;48.024;11.726;2022-11-20T09:33:46;6.70;99.90
9537;DHT22;4807;48.024;11.726;2022-11-20T09:36:55;6.80;99.90
9537;DHT22;4807;48.024;11.726;2022-11-20T09:40:18;6.80;99.90
9537;DHT22;4807;48.024;11.726;2022-11-20T09:43:37;7.00;99.90
9537;DHT22;4807;48.024;11.726;2022-11-20T09:47:00;7.20;99.90
9537;DHT22;4807;48.024;11.726;2022-11-20T09:50:25;7.20;99.90
9537;DHT22;4807;48.024;11.726;2022-11-20T09:53:47;7.30;99.90
9537;DHT22;4807;48.024;11.726;2022-11-20T09:57:12;7.40;99.90
9537;DHT22;4807;48.024;11.726;2022-11-20T10:00:25;6.60;99.80
9537;DHT22;4807;48.024;11.726;2022-11-20T10:03:39;7.50;99.90
9537;DHT22;4807;48.024;11.726;2022-11-20T10:07:03;7.50;99.40
9537;DHT22;4807;48.024;11.726;2022-11-20T10:10:40;7.50;99.20
9537;DHT22;4807;48.024;11.726;2022-11-20T10:14:06;7.60;98.70
9537;DHT22;4807;48.024;11.726;2022-11-20T10:17:33;7.70;98.50
9537;DHT22;4807;48.024;11.726;2022-11-20T10:21:09;7.80;97.70
9537;DHT22;4807;48.024;11.726;2022-11-20T10:24:39;7.90;98.50
9537;DHT22;4807;48.024;11.726;2022-11-20T10:28:07;8.10;98.10
9537;DHT22;4807;48.024;11.726;2022-11-20T10:31:29;8.20;97.60
9537;DHT22;4807;48.024;11.726;2022-11-20T10:34:48;8.20;97.50
9537;DHT22;4807;48.024;11.726;2022-11-20T10:38:02;8.20;97.10
9537;DHT22;4807;48.024;11.726;2022-11-20T10:41:21;8.10;97.10
9537;DHT22;4807;48.024;11.726;2022-11-20T10:44:39;8.20;97.30
9537;DHT22;4807;48.024;11.726;2022-11-20T10:48:16;8.30;97.50
9537;DHT22;4807;48.024;11.726;2022-11-20T10:51:35;8.50;96.50
9537;DHT22;4807;48.024;11.726;2022-11-20T10:54:55;8.50;96.30
9537;DHT22;4807;48.024;11.726;2022-11-20T10:58:17;8.30;96.20
9537;DHT22;4807;48.024;11.726;2022-11-20T11:01:40;8.50;96.70
9537;DHT22;4807;48.024;11.726;2022-11-20T11:04:52;8.50;95.80
9537;DHT22;4807;48.024;11.726;2022-11-20T11:08:03;8.50;96.30
9537;DHT22;4807;48.024;11.726;2022-11-20T11:11:23;8.60;95.90
9537;DHT22;4807;48.024;11.726;2022-11-20T11:14:45;8.70;95.60
9537;DHT22;4807;48.024;11.726;2022-11-20T11:17:56;8.90;95.80
9537;DHT22;4807;48.024;11.726;2022-11-20T11:21:05;8.80;95.70
9537;DHT22;4807;48.024;11.726;2022-11-20T11:24:20;8.50;95.60
9537;DHT22;4807;48.024;11.726;2022-11-20T11:27:48;8.40;95.80
9537;DHT22;4807;48.024;11.726;2022-11-20T11:30:59;8.20;96.60
9537;DHT22;4807;48.024;11.726;2022-11-20T11:34:12;8.10;96.30
9537;DHT22;4807;48.024;11.726;2022-11-20T11:37:22;8.00;96.80
9537;DHT22;4807;48.024;11.726;2022-11-20T11:40:32;8.00;96.60
9537;DHT22;4807;48.024;11.726;2022-11-20T11:43:51;8.00;96.60
9537;DHT22;4807;48.024;11.726;2022-11-20T11:47:23;8.10;97.10
9537;DHT22;4807;48.024;11.726;2022-11-20T11:50:34;8.10;97.60
9537;DHT22;4807;48.024;11.726;2022-11-20T11:53:43;8.10;97.40
9537;DHT22;4807;48.024;11.726;2022-11-20T11:56:51;8.30;97.10
9537;DHT22;4807;48.024;11.726;2022-11-20T12:00:06;8.40;97.00
9537;DHT22;4807;48.024;11.726;2022-11-20T12:03:27;8.60;96.60
9537;DHT22;4807;48.024;11.726;2022-11-20T12:06:43;8.60;96.90
9537;DHT22;4807;48.024;11.726;2022-11-20T12:09:57;8.60;96.10
9537;DHT22;4807;48.024;11.726;2022-11-20T12:13:17;8.60;96.20
9537;DHT22;4807;48.024;11.726;2022-11-20T12:16:35;8.70;96.00
9537;DHT22;4807;48.024;11.726;2022-11-20T12:19:47;8.70;95.50
9537;DHT22;4807;48.024;11.726;2022-11-20T12:23:02;8.70;96.10
9537;DHT22;4807;48.024;11.726;2022-11-20T12:26:26;8.70;96.70
9537;DHT22;4807;48.024;11.726;2022-11-20T12:29:47;8.80;95.80
9537;DHT22;4807;48.024;11.726;2022-11-20T12:33:23;8.80;95.40
9537;DHT22;4807;48.024;11.726;2022-11-20T12:36:49;8.70;95.30
9537;DHT22;4807;48.024;11.726;2022-11-20T12:40:20;8.50;95.40
9537;DHT22;4807;48.024;11.726;2022-11-20T12:43:41;8.40;96.00
9537;DHT22;4807;48.024;11.726;2022-11-20T12:47:19;8.20;96.90
9537;DHT22;4807;48.024;11.726;2022-11-20T12:50:44;7.90;97.10
9537;DHT22;4807;48.024;11.726;2022-11-20T12:58:23;7.50;99.20
9537;DHT22;4807;48.024;11.726;2022-11-20T13:01:44;7.30;99.90
9537;DHT22;4807;48.024;11.726;2022-11-20T13:05:17;7.20;99.90
9537;DHT22;4807;48.024;11.726;2022-11-20T13:08:32;7.00;99.90
9537;DHT22;4807;48.024;11.726;2022-11-20T13:11:48;6.80;99.90
9537;DHT22;4807;48.024;11.726;2022-11-20T13:15:14;6.70;99.90
9537;DHT22;4807;48.024;11.726;2022-11-20T13:18:38;6.70;99.90
9537;DHT22;4807;48.024;11.726;2022-11-20T13:21:50;6.70;99.90
9537;DHT22;4807;48.024;11.726;2022-11-20T13:24:58;6.70;99.90
9537;DHT22;4807;48.024;11.726;2022-11-20T13:28:27;6.60;99.90
9537;DHT22;4807;48.024;11.726;2022-11-20T13:31:40;6.40;99.90
9537;DHT22;4807;48.024;11.726;2022-11-20T13:34:52;6.40;99.90
9537;DHT22;4807;48.024;11.726;2022-11-20T13:38:05;6.40;99.90
9537;DHT22;4807;48.024;11.726;2022-11-20T13:41:24;6.40;99.90
9537;DHT22;4807;48.024;11.726;2022-11-20T13:44:42;6.30;99.90
9537;DHT22;4807;48.024;11.726;2022-11-20T13:47:53;6.20;99.90
9537;DHT22;4807;48.024;11.726;2022-11-20T13:51:09;6.20;99.90
9537;DHT22;4807;48.024;11.726;2022-11-20T13:54:44;6.20;99.90
9537;DHT22;4807;48.024;11.726;2022-11-20T13:58:19;6.30;99.90
9537;DHT22;4807;48.024;11.726;2022-11-20T14:01:40;6.30;99.90
9537;DHT22;4807;48.024;11.726;2022-11-20T14:04:57;6.30;99.90
9537;DHT22;4807;48.024;11.726;2022-11-20T14:08:14;6.30;99.90
9537;DHT22;4807;48.024;11.726;2022-11-20T14:11:31;6.30;99.90
9537;DHT22;4807;48.024;11.726;2022-11-20T14:14:48;6.30;99.90
9537;DHT22;4807;48.024;11.726;2022-11-20T14:18:00;6.30;99.90
9537;DHT22;4807;48.024;11.726;2022-11-20T14:21:24;6.30;99.90
9537;DHT22;4807;48.024;11.726;2022-11-20T14:24:35;6.30;99.90
9537;DHT22;4807;48.024;11.726;2022-11-20T14:27:45;6.50;99.90
9537;DHT22;4807;48.024;11.726;2022-11-20T14:31:00;6.40;99.90
9537;DHT22;4807;48.024;11.726;2022-11-20T14:34:15;6.40;99.90
9537;DHT22;4807;48.024;11.726;2022-11-20T14:37:29;6.40;99.90
9537;DHT22;4807;48.024;11.726;2022-11-20T14:40:42;6.40;99.90
9537;DHT22;4807;48.024;11.726;2022-11-20T14:43:54;6.40;99.90
9537;DHT22;4807;48.024;11.726;2022-11-20T14:47:05;6.40;99.90
9537;DHT22;4807;48.024;11.726;2022-11-20T14:50:19;6.30;99.90
9537;DHT22;4807;48.024;11.726;2022-11-20T14:53:29;6.20;99.90
9537;DHT22;4807;48.024;11.726;2022-11-20T14:56:38;6.20;99.90
9537;DHT22;4807;48.024;11.726;2022-11-20T14:59:46;6.20;99.90
9537;DHT22;4807;48.024;11.726;2022-11-20T15:02:55;5.60;99.90
9537;DHT22;4807;48.024;11.726;2022-11-20T15:06:07;6.20;99.90
9537;DHT22;4807;48.024;11.726;2022-11-20T15:09:19;6.20;99.90
9537;DHT22;4807;48.024;11.726;2022-11-20T15:12:28;6.20;99.90
9537;DHT22;4807;48.024;11.726;2022-11-20T15:15:42;6.20;99.90
9537;DHT22;4807;48.024;11.726;2022-11-20T15:18:55;6.20;99.90
9537;DHT22;4807;48.024;11.726;2022-11-20T15:22:12;6.20;99.90
9537;DHT22;4807;48.024;11.726;2022-11-20T15:25:33;6.10;99.90
9537;DHT22;4807;48.024;11.726;2022-11-20T15:28:43;6.60;99.90
9537;DHT22;4807;48.024;11.726;2022-11-20T15:31:54;6.10;99.90
9537;DHT22;4807;48.024;11.726;2022-11-20T15:35:03;6.00;99.90
9537;DHT22;4807;48.024;11.726;2022-11-20T15:38:14;6.00;99.90
9537;DHT22;4807;48.024;11.726;2022-11-20T15:41:22;5.70;99.90
9537;DHT22;4807;48.024;11.726;2022-11-20T15:44:31;5.90;99.90
9537;DHT22;4807;48.024;11.726;2022-11-20T15:47:39;5.80;99.90
9537;DHT22;4807;48.024;11.726;2022-11-20T15:50:52;5.90;99.90
9537;DHT22;4807;48.024;11.726;2022-11-20T15:54:11;5.80;99.90
9537;DHT22;4807;48.024;11.726;2022-11-20T15:57:21;5.70;99.90
9537;DHT22;4807;48.024;11.726;2022-11-20T16:00:29;5.70;99.90
9537;DHT22;4807;48.024;11.726;2022-11-20T16:03:38;5.60;99.90
9537;DHT22;4807;48.024;11.726;2022-11-20T16:06:47;5.50;99.90
9537;DHT22;4807;48.024;11.726;2022-11-20T16:09:57;5.30;99.90
9537;DHT22;4807;48.024;11.726;2022-11-20T16:13:12;5.30;99.90
9537;DHT22;4807;48.024;11.726;2022-11-20T16:16:39;5.40;99.90
9537;DHT22;4807;48.024;11.726;2022-11-20T16:19:49;5.40;99.90
9537;DHT22;4807;48.024;11.726;2022-11-20T16:22:58;5.40;99.90
9537;DHT22;4807;48.024;11.726;2022-11-20T16:26:12;5.40;99.90
9537;DHT22;4807;48.024;11.726;2022-11-20T16:29:23;5.30;99.90
9537;DHT22;4807;48.024;11.726;2022-11-20T16:32:31;5.30;99.90
9537;DHT22;4807;48.024;11.726;2022-11-20T16:35:41;5.10;99.90
9537;DHT22;4807;48.024;11.726;2022-11-20T16:38:51;4.70;99.90
9537;DHT22;4807;48.024;11.726;2022-11-20T16:42:05;4.70;99.90
9537;DHT22;4807;48.024;11.726;2022-11-20T16:45:14;4.50;99.90
9537;DHT22;4807;48.024;11.726;2022-11-20T16:48:32;4.30;99.90
9537;DHT22;4807;48.024;11.726;2022-11-20T16:51:41;4.30;99.90
9537;DHT22;4807;48.024;11.726;2022-11-20T16:54:50;4.30;99.90
9537;DHT22;4807;48.024;11.726;2022-11-20T16:58:01;4.10;99.90
9537;DHT22;4807;48.024;11.726;2022-11-20T17:01:11;4.00;99.90
9537;DHT22;4807;48.024;11.726;2022-11-20T17:04:21;4.00;99.90
9537;DHT22;4807;48.024;11.726;2022-11-20T17:07:32;3.80;99.90
9537;DHT22;4807;48.024;11.726;2022-11-20T17:10:40;3.70;99.90
9537;DHT22;4807;48.024;11.726;2022-11-20T17:13:51;3.70;99.90
9537;DHT22;4807;48.024;11.726;2022-11-20T17:17:02;3.50;99.90
9537;DHT22;4807;48.024;11.726;2022-11-20T17:20:11;3.30;99.90
9537;DHT22;4807;48.024;11.726;2022-11-20T17:23:21;3.20;99.90
9537;DHT22;4807;48.024;11.726;2022-11-20T17:26:30;3.10;99.90
9537;DHT22;4807;48.024;11.726;2022-11-20T17:29:40;3.10;99.90
9537;DHT22;4807;48.024;11.726;2022-11-20T17:32:50;3.00;99.90
9537;DHT22;4807;48.024;11.726;2022-11-20T17:35:58;2.90;99.90
9537;DHT22;4807;48.024;11.726;2022-11-20T17:39:09;2.80;99.90
9537;DHT22;4807;48.024;11.726;2022-11-20T17:42:18;2.90;99.90
9537;DHT22;4807;48.024;11.726;2022-11-20T17:45:37;2.80;99.90
9537;DHT22;4807;48.024;11.726;2022-11-20T17:48:47;2.60;99.90
9537;DHT22;4807;48.024;11.726;2022-11-20T17:51:56;2.60;99.90
9537;DHT22;4807;48.024;11.726;2022-11-20T17:55:05;2.50;99.90
9537;DHT22;4807;48.024;11.726;2022-11-20T17:58:14;2.60;99.90
9537;DHT22;4807;48.024;11.726;2022-11-20T18:01:23;2.50;99.90
9537;DHT22;4807;48.024;11.726;2022-11-20T18:04:31;2.50;99.90
9537;DHT22;4807;48.024;11.726;2022-11-20T18:07:40;2.40;99.90
9537;DHT22;4807;48.024;11.726;2022-11-20T18:10:48;2.30;99.90
9537;DHT22;4807;48.024;11.726;2022-11-20T18:13:58;2.30;99.90
9537;DHT22;4807;48.024;11.726;2022-11-20T18:17:26;2.30;99.90
9537;DHT22;4807;48.024;11.726;2022-11-20T18:20:35;2.20;99.90
9537;DHT22;4807;48.024;11.726;2022-11-20T18:23:46;3.10;99.90
9537;DHT22;4807;48.024;11.726;2022-11-20T18:26:55;2.30;99.90
9537;DHT22;4807;48.024;11.726;2022-11-20T18:30:05;2.40;99.90
9537;DHT22;4807;48.024;11.726;2022-11-20T18:33:16;2.40;99.90
9537;DHT22;4807;48.024;11.726;2022-11-20T18:36:26;2.50;99.90
9537;DHT22;4807;48.024;11.726;2022-11-20T18:39:35;2.50;99.90
9537;DHT22;4807;48.024;11.726;2022-11-20T18:42:44;2.60;99.90
9537;DHT22;4807;48.024;11.726;2022-11-20T18:46:09;2.60;99.90
9537;DHT22;4807;48.024;11.726;2022-11-20T18:49:20;1.70;99.90
9537;DHT22;4807;48.024;11.726;2022-11-20T18:52:30;2.70;99.90
9537;DHT22;4807;48.024;11.726;2022-11-20T18:55:40;2.80;99.90
9537;DHT22;4807;48.024;11.726;2022-11-20T18:58:49;2.70;99.90
9537;DHT22;4807;48.024;11.726;2022-11-20T19:01:58;2.70;99.90
9537;DHT22;4807;48.024;11.726;2022-11-20T19:05:12;2.70;99.90
9537;DHT22;4807;48.024;11.726;2022-11-20T19:08:23;2.60;99.90
9537;DHT22;4807;48.024;11.726;2022-11-20T19:11:33;2.50;99.90
9537;DHT22;4807;48.024;11.726;2022-11-20T19:14:42;2.40;99.90
9537;DHT22;4807;48.024;11.726;2022-11-20T19:17:50;2.40;99.90
9537;DHT22;4807;48.024;11.726;2022-11-20T19:21:08;2.40;99.90
9537;DHT22;4807;48.024;11.726;2022-11-20T19:24:17;2.40;99.90
9537;DHT22;4807;48.024;11.726;2022-11-20T19:27:26;2.50;99.90
9537;DHT22;4807;48.024;11.726;2022-11-20T19:30:34;2.50;99.90
9537;DHT22;4807;48.024;11.726;2022-11-20T19:33:43;2.70;99.90
9537;DHT22;4807;48.024;11.726;2022-11-20T19:36:54;2.70;99.90
9537;DHT22;4807;48.024;11.726;2022-11-20T19:40:02;2.70;99.90
9537;DHT22;4807;48.024;11.726;2022-11-20T19:43:11;2.60;99.90
9537;DHT22;4807;48.024;11.726;2022-11-20T19:46:20;2.70;99.90
9537;DHT22;4807;48.024;11.726;2022-11-20T19:49:30;2.70;99.90
9537;DHT22;4807;48.024;11.726;2022-11-20T19:52:41;2.60;99.90
9537;DHT22;4807;48.024;11.726;2022-11-20T19:55:56;2.70;99.90
9537;DHT22;4807;48.024;11.726;2022-11-20T19:59:05;2.70;99.90
9537;DHT22;4807;48.024;11.726;2022-11-20T20:02:14;2.80;99.90
9537;DHT22;4807;48.024;11.726;2022-11-20T20:05:23;2.70;99.90
9537;DHT22;4807;48.024;11.726;2022-11-20T20:08:33;3.60;99.90
9537;DHT22;4807;48.024;11.726;2022-11-20T20:11:44;2.60;99.90
9537;DHT22;4807;48.024;11.726;2022-11-20T20:14:53;2.70;99.90
9537;DHT22;4807;48.024;11.726;2022-11-20T20:18:02;2.70;99.90
9537;DHT22;4807;48.024;11.726;2022-11-20T20:21:12;2.60;99.90
9537;DHT22;4807;48.024;11.726;2022-11-20T20:24:23;2.60;99.90
9537;DHT22;4807;48.024;11.726;2022-11-20T20:27:32;2.50;99.90
9537;DHT22;4807;48.024;11.726;2022-11-20T20:30:42;2.50;99.90
9537;DHT22;4807;48.024;11.726;2022-11-20T20:33:50;2.40;99.90
9537;DHT22;4807;48.024;11.726;2022-11-20T20:36:59;2.90;99.90
9537;DHT22;4807;48.024;11.726;2022-11-20T20:40:11;3.00;99.90
9537;DHT22;4807;48.024;11.726;2022-11-20T20:43:21;2.40;99.90
9537;DHT22;4807;48.024;11.726;2022-11-20T20:46:30;2.50;99.90
9537;DHT22;4807;48.024;11.726;2022-11-20T20:49:38;2.50;99.90
9537;DHT22;4807;48.024;11.726;2022-11-20T20:52:48;2.50;99.90
9537;DHT22;4807;48.024;11.726;2022-11-20T20:56:00;2.70;99.90
9537;DHT22;4807;48.024;11.726;2022-11-20T20:59:09;2.90;99.90
9537;DHT22;4807;48.024;11.726;2022-11-20T21:02:17;3.00;99.90
9537;DHT22;4807;48.024;11.726;2022-11-20T21:05:26;3.10;99.90